sensor_id;sensor_type;location;lat;lon;timestamp;pressure;altitude;pressure_sealevel;temperature;humidity
6514;BME280;3290;47.716;9.070;2022-12-11T00:01:58;96241.50;;;1.89;100.00
6514;BME280;3290;47.716;9.070;2022-12-11T00:04:23;96238.59;;;1.77;100.00
6514;BME280;3290;47.716;9.070;2022-12-11T00:06:49;96241.25;;;1.84;100.00
6514;BME280;3290;47.716;9.070;2022-12-11T00:09:19;96242.75;;;1.78;100.00
6514;BME280;3290;47.716;9.070;2022-12-11T00:11:45;96235.84;;;1.79;100.00
6514;BME280;3290;47.716;9.070;2022-12-11T00:14:11;96242.69;;;1.72;100.00
6514;BME280;3290;47.716;9.070;2022-12-11T00:16:37;96237.59;;;1.64;100.00
6514;BME280;3290;47.716;9.070;2022-12-11T00:19:03;96247.56;;;1.67;100.00
6514;BME280;3290;47.716;9.070;2022-12-11T00:21:29;96249.53;;;1.65;100.00
6514;BME280;3290;47.716;9.070;2022-12-11T00:23:54;96248.00;;;1.56;100.00
6514;BME280;3290;47.716;9.070;2022-12-11T00:26:20;96250.91;;;1.53;100.00
6514;BME280;3290;47.716;9.070;2022-12-11T00:28:45;96248.78;;;1.57;100.00
6514;BME280;3290;47.716;9.070;2022-12-11T00:31:15;96240.59;;;1.39;100.00
6514;BME280;3290;47.716;9.070;2022-12-11T00:33:43;96243.38;;;1.29;100.00
6514;BME280;3290;47.716;9.070;2022-12-11T00:36:17;96253.03;;;1.35;100.00
6514;BME280;3290;47.716;9.070;2022-12-11T00:38:42;96254.53;;;1.30;100.00
6514;BME280;3290;47.716;9.070;2022-12-11T00:41:09;96255.78;;;1.34;100.00
6514;BME280;3290;47.716;9.070;2022-12-11T00:43:34;96253.97;;;1.20;100.00
6514;BME280;3290;47.716;9.070;2022-12-11T00:46:00;96266.34;;;1.02;100.00
6514;BME280;3290;47.716;9.070;2022-12-11T00:48:25;96272.19;;;1.18;100.00
6514;BME280;3290;47.716;9.070;2022-12-11T00:50:51;96272.41;;;1.09;100.00
6514;BME280;3290;47.716;9.070;2022-12-11T00:53:16;96273.88;;;1.26;100.00
6514;BME280;3290;47.716;9.070;2022-12-11T00:55:42;96274.16;;;1.31;100.00
6514;BME280;3290;47.716;9.070;2022-12-11T00:58:09;96265.97;;;1.27;100.00
6514;BME280;3290;47.716;9.070;2022-12-11T01:00:34;96279.91;;;1.18;100.00
6514;BME280;3290;47.716;9.070;2022-12-11T01:03:00;96264.81;;;1.16;100.00
6514;BME280;3290;47.716;9.070;2022-12-11T01:05:26;96272.19;;;1.18;100.00
6514;BME280;3290;47.716;9.070;2022-12-11T01:07:51;96274.00;;;1.32;100.00
6514;BME280;3290;47.716;9.070;2022-12-11T01:10:16;96268.56;;;1.27;100.00
6514;BME280;3290;47.716;9.070;2022-12-11T01:12:53;96267.03;;;1.18;100.00
6514;BME280;3290;47.716;9.070;2022-12-11T01:15:19;96275.50;;;1.27;100.00
6514;BME280;3290;47.716;9.070;2022-12-11T01:17:47;96268.63;;;1.19;100.00
6514;BME280;3290;47.716;9.070;2022-12-11T01:20:12;96274.41;;;1.21;100.00
6514;BME280;3290;47.716;9.070;2022-12-11T01:22:38;96279.63;;;1.14;100.00
6514;BME280;3290;47.716;9.070;2022-12-11T01:25:04;96279.63;;;1.14;100.00
6514;BME280;3290;47.716;9.070;2022-12-11T01:27:29;96281.25;;;1.15;100.00
6514;BME280;3290;47.716;9.070;2022-12-11T01:29:55;96276.53;;;1.18;100.00
6514;BME280;3290;47.716;9.070;2022-12-11T01:32:20;96281.75;;;1.10;100.00
6514;BME280;3290;47.716;9.070;2022-12-11T01:34:46;96282.63;;;1.03;100.00
6514;BME280;3290;47.716;9.070;2022-12-11T01:37:11;96278.38;;;1.10;100.00
6514;BME280;3290;47.716;9.070;2022-12-11T01:39:37;96276.41;;;1.12;100.00
6514;BME280;3290;47.716;9.070;2022-12-11T01:42:05;96282.63;;;1.03;100.00
6514;BME280;3290;47.716;9.070;2022-12-11T01:46:59;96280.44;;;0.92;100.00
6514;BME280;3290;47.716;9.070;2022-12-11T01:49:26;96280.91;;;0.95;100.00
6514;BME280;3290;47.716;9.070;2022-12-11T01:51:59;96284.97;;;0.90;100.00
6514;BME280;3290;47.716;9.070;2022-12-11T01:54:27;96284.28;;;0.96;100.00
6514;BME280;3290;47.716;9.070;2022-12-11T01:56:56;96289.81;;;0.85;100.00
6514;BME280;3290;47.716;9.070;2022-12-11T01:59:23;96293.59;;;0.75;100.00
6514;BME280;3290;47.716;9.070;2022-12-11T02:01:54;96291.00;;;0.75;100.00
6514;BME280;3290;47.716;9.070;2022-12-11T02:04:21;96296.22;;;0.67;100.00
6514;BME280;3290;47.716;9.070;2022-12-11T02:06:50;96295.41;;;0.66;100.00
6514;BME280;3290;47.716;9.070;2022-12-11T02:09:22;96301.03;;;0.70;100.00
6514;BME280;3290;47.716;9.070;2022-12-11T02:12:00;96303.44;;;0.71;100.00
6514;BME280;3290;47.716;9.070;2022-12-11T02:19:50;96314.81;;;0.54;100.00
6514;BME280;3290;47.716;9.070;2022-12-11T02:27:52;96304.69;;;0.53;100.00
6514;BME280;3290;47.716;9.070;2022-12-11T02:30:22;96304.22;;;0.49;100.00
6514;BME280;3290;47.716;9.070;2022-12-11T02:32:53;96305.78;;;0.58;100.00
6514;BME280;3290;47.716;9.070;2022-12-11T02:37:46;96315.31;;;0.80;100.00
6514;BME280;3290;47.716;9.070;2022-12-11T02:40:17;96308.91;;;0.68;100.00
6514;BME280;3290;47.716;9.070;2022-12-11T02:42:46;96302.09;;;0.83;100.00
6514;BME280;3290;47.716;9.070;2022-12-11T02:45:13;96307.00;;;0.92;100.00
6514;BME280;3290;47.716;9.070;2022-12-11T02:47:42;96303.44;;;0.71;100.00
6514;BME280;3290;47.716;9.070;2022-12-11T02:50:12;96307.63;;;0.72;100.00
6514;BME280;3290;47.716;9.070;2022-12-11T02:52:40;96305.63;;;0.82;100.00
6514;BME280;3290;47.716;9.070;2022-12-11T02:55:08;96301.56;;;0.87;100.00
6514;BME280;3290;47.716;9.070;2022-12-11T03:00:04;96303.34;;;0.87;100.00
6514;BME280;3290;47.716;9.070;2022-12-11T03:02:30;96302.78;;;0.77;100.00
6514;BME280;3290;47.716;9.070;2022-12-11T03:04:56;96301.50;;;0.73;100.00
6514;BME280;3290;47.716;9.070;2022-12-11T03:07:25;96300.22;;;0.69;100.00
6514;BME280;3290;47.716;9.070;2022-12-11T03:09:51;96298.53;;;0.84;100.00
6514;BME280;3290;47.716;9.070;2022-12-11T03:12:24;96310.63;;;0.53;100.00
6514;BME280;3290;47.716;9.070;2022-12-11T03:14:52;96303.19;;;0.58;100.00
6514;BME280;3290;47.716;9.070;2022-12-11T03:17:22;96312.81;;;0.64;100.00
6514;BME280;3290;47.716;9.070;2022-12-11T03:22:46;96311.94;;;0.79;100.00
6514;BME280;3290;47.716;9.070;2022-12-11T03:25:22;96309.53;;;0.78;100.00
6514;BME280;3290;47.716;9.070;2022-12-11T03:28:09;96309.06;;;0.75;100.00
6514;BME280;3290;47.716;9.070;2022-12-11T03:30:35;96316.28;;;0.79;100.00
6514;BME280;3290;47.716;9.070;2022-12-11T03:33:10;96310.97;;;0.80;100.00
6514;BME280;3290;47.716;9.070;2022-12-11T03:35:41;96319.19;;;0.76;100.00
6514;BME280;3290;47.716;9.070;2022-12-11T03:38:15;96317.88;;;0.80;100.00
6514;BME280;3290;47.716;9.070;2022-12-11T03:40:45;96317.09;;;0.79;100.00
6514;BME280;3290;47.716;9.070;2022-12-11T03:43:14;96310.84;;;0.74;100.00
6514;BME280;3290;47.716;9.070;2022-12-11T03:45:41;96307.47;;;0.74;100.00
6514;BME280;3290;47.716;9.070;2022-12-11T03:48:08;96317.84;;;0.58;100.00
6514;BME280;3290;47.716;9.070;2022-12-11T03:50:34;96322.53;;;0.54;100.00
6514;BME280;3290;47.716;9.070;2022-12-11T03:53:01;96318.97;;;0.55;100.00
6514;BME280;3290;47.716;9.070;2022-12-11T03:55:29;96321.41;;;0.57;100.00
6514;BME280;3290;47.716;9.070;2022-12-11T03:57:56;96322.94;;;0.36;100.00
6514;BME280;3290;47.716;9.070;2022-12-11T04:00:21;96320.84;;;0.31;100.00
6514;BME280;3290;47.716;9.070;2022-12-11T04:02:47;96324.91;;;0.26;100.00
6514;BME280;3290;47.716;9.070;2022-12-11T04:05:33;96332.50;;;0.19;100.00
6514;BME280;3290;47.716;9.070;2022-12-11T04:07:58;96333.94;;;0.22;100.00
6514;BME280;3290;47.716;9.070;2022-12-11T04:10:23;96329.94;;;0.19;100.00
6514;BME280;3290;47.716;9.070;2022-12-11T04:12:49;96330.22;;;0.24;100.00
6514;BME280;3290;47.716;9.070;2022-12-11T04:15:14;96334.72;;;0.30;100.00
6514;BME280;3290;47.716;9.070;2022-12-11T04:17:40;96334.19;;;0.42;100.00
6514;BME280;3290;47.716;9.070;2022-12-11T04:20:24;96341.97;;;0.19;100.00
6514;BME280;3290;47.716;9.070;2022-12-11T04:23:18;96350.34;;;0.21;100.00
6514;BME280;3290;47.716;9.070;2022-12-11T04:26:10;96350.66;;;0.26;100.00
6514;BME280;3290;47.716;9.070;2022-12-11T04:28:36;96348.72;;;0.28;100.00
6514;BME280;3290;47.716;9.070;2022-12-11T04:31:02;96353.09;;;0.19;100.00
6514;BME280;3290;47.716;9.070;2022-12-11T04:33:28;96349.59;;;0.04;100.00
6514;BME280;3290;47.716;9.070;2022-12-11T04:35:53;96344.25;;;0.14;100.00
6514;BME280;3290;47.716;9.070;2022-12-11T04:38:21;96343.75;;;0.10;100.00
6514;BME280;3290;47.716;9.070;2022-12-11T04:40:46;96345.38;;;0.11;100.00
6514;BME280;3290;47.716;9.070;2022-12-11T04:43:12;96331.69;;;0.19;100.00
6514;BME280;3290;47.716;9.070;2022-12-11T04:45:37;96341.97;;;0.19;100.00
6514;BME280;3290;47.716;9.070;2022-12-11T04:48:02;96334.88;;;0.21;100.00
6514;BME280;3290;47.716;9.070;2022-12-11T04:50:28;96332.81;;;0.16;100.00
6514;BME280;3290;47.716;9.070;2022-12-11T04:52:54;96326.84;;;0.24;100.00
6514;BME280;3290;47.716;9.070;2022-12-11T04:55:20;96326.88;;;0.16;100.00
6514;BME280;3290;47.716;9.070;2022-12-11T04:57:45;96327.59;;;-0.14;100.00
6514;BME280;3290;47.716;9.070;2022-12-11T05:00:12;96329.50;;;0.00;100.00
6514;BME280;3290;47.716;9.070;2022-12-11T05:02:38;96329.03;;;-0.11;100.00
6514;BME280;3290;47.716;9.070;2022-12-11T05:05:06;96330.81;;;-0.12;100.00
6514;BME280;3290;47.716;9.070;2022-12-11T05:07:34;96326.63;;;-0.21;100.00
6514;BME280;3290;47.716;9.070;2022-12-11T05:09:59;96323.41;;;-0.15;100.00
6514;BME280;3290;47.716;9.070;2022-12-11T05:12:25;96333.72;;;-0.23;100.00
6514;BME280;3290;47.716;9.070;2022-12-11T05:14:52;96325.38;;;-0.33;100.00
6514;BME280;3290;47.716;9.070;2022-12-11T05:17:18;96331.13;;;-0.39;100.00
6514;BME280;3290;47.716;9.070;2022-12-11T05:19:43;96322.28;;;-0.28;100.00
6514;BME280;3290;47.716;9.070;2022-12-11T05:22:08;96330.22;;;-0.45;100.00
6514;BME280;3290;47.716;9.070;2022-12-11T05:24:34;96329.88;;;-0.50;100.00
6514;BME280;3290;47.716;9.070;2022-12-11T05:26:59;96328.44;;;-0.61;100.00
6514;BME280;3290;47.716;9.070;2022-12-11T05:29:24;96320.72;;;-0.61;100.00
6514;BME280;3290;47.716;9.070;2022-12-11T05:31:50;96329.25;;;-0.76;100.00
6514;BME280;3290;47.716;9.070;2022-12-11T05:34:15;96327.94;;;-0.88;100.00
6514;BME280;3290;47.716;9.070;2022-12-11T05:36:40;96322.66;;;-0.94;100.00
6514;BME280;3290;47.716;9.070;2022-12-11T05:39:06;96327.13;;;-0.81;100.00
6514;BME280;3290;47.716;9.070;2022-12-11T05:41:32;96325.53;;;-0.89;100.00
6514;BME280;3290;47.716;9.070;2022-12-11T05:43:57;96323.13;;;-0.91;100.00
6514;BME280;3290;47.716;9.070;2022-12-11T05:46:25;96326.94;;;-1.11;100.00
6514;BME280;3290;47.716;9.070;2022-12-11T05:48:54;96321.78;;;-1.26;100.00
6514;BME280;3290;47.716;9.070;2022-12-11T05:51:20;96323.69;;;-1.28;100.00
6514;BME280;3290;47.716;9.070;2022-12-11T05:53:47;96318.88;;;-1.31;100.00
6514;BME280;3290;47.716;9.070;2022-12-11T05:56:16;96326.56;;;-1.39;100.00
6514;BME280;3290;47.716;9.070;2022-12-11T05:58:43;96327.53;;;-1.32;100.00
6514;BME280;3290;47.716;9.070;2022-12-11T06:01:12;96331.22;;;-1.35;100.00
6514;BME280;3290;47.716;9.070;2022-12-11T06:03:38;96334.63;;;-1.26;100.00
6514;BME280;3290;47.716;9.070;2022-12-11T06:06:04;96337.19;;;-1.26;100.00
6514;BME280;3290;47.716;9.070;2022-12-11T06:08:30;96339.09;;;-1.28;100.00
6514;BME280;3290;47.716;9.070;2022-12-11T06:10:56;96343.63;;;-1.15;100.00
6514;BME280;3290;47.716;9.070;2022-12-11T06:13:22;96338.19;;;-1.12;100.00
6514;BME280;3290;47.716;9.070;2022-12-11T06:15:47;96335.28;;;-1.17;100.00
6514;BME280;3290;47.716;9.070;2022-12-11T06:18:13;96339.16;;;-0.97;100.00
6514;BME280;3290;47.716;9.070;2022-12-11T06:20:38;96341.41;;;-1.02;100.00
6514;BME280;3290;47.716;9.070;2022-12-11T06:23:04;96334.03;;;-1.05;100.00
6514;BME280;3290;47.716;9.070;2022-12-11T06:25:29;96326.94;;;-1.11;100.00
6514;BME280;3290;47.716;9.070;2022-12-11T06:27:55;96328.38;;;-1.16;100.00
6514;BME280;3290;47.716;9.070;2022-12-11T06:30:21;96331.75;;;-1.23;100.00
6514;BME280;3290;47.716;9.070;2022-12-11T06:32:46;96328.69;;;-1.27;100.00
6514;BME280;3290;47.716;9.070;2022-12-11T06:35:11;96333.13;;;-1.37;100.00
6514;BME280;3290;47.716;9.070;2022-12-11T06:37:37;96327.31;;;-1.55;100.00
6514;BME280;3290;47.716;9.070;2022-12-11T06:40:04;96328.09;;;-1.54;100.00
6514;BME280;3290;47.716;9.070;2022-12-11T06:42:30;96332.63;;;-1.48;100.00
6514;BME280;3290;47.716;9.070;2022-12-11T06:44:56;96331.66;;;-1.47;100.00
6514;BME280;3290;47.716;9.070;2022-12-11T06:47:28;96321.38;;;-1.47;100.00
6514;BME280;3290;47.716;9.070;2022-12-11T06:49:54;96318.88;;;-1.31;100.00
6514;BME280;3290;47.716;9.070;2022-12-11T06:52:21;96319.16;;;-1.50;100.00
6514;BME280;3290;47.716;9.070;2022-12-11T06:57:14;96332.34;;;-1.45;100.00
6514;BME280;3290;47.716;9.070;2022-12-11T06:59:40;96333.28;;;-1.38;100.00
6514;BME280;3290;47.716;9.070;2022-12-11T07:02:06;96327.88;;;-1.27;100.00
6514;BME280;3290;47.716;9.070;2022-12-11T07:04:31;96334.13;;;-1.30;100.00
6514;BME280;3290;47.716;9.070;2022-12-11T07:06:57;96333.28;;;-1.38;100.00
6514;BME280;3290;47.716;9.070;2022-12-11T07:09:23;96336.53;;;-1.28;100.00
6514;BME280;3290;47.716;9.070;2022-12-11T07:11:49;96332.69;;;-1.24;100.00
6514;BME280;3290;47.716;9.070;2022-12-11T07:14:15;96331.13;;;-1.10;100.00
6514;BME280;3290;47.716;9.070;2022-12-11T07:16:40;96329.88;;;-0.98;99.82
6514;BME280;3290;47.716;9.070;2022-12-11T07:19:06;96333.06;;;-0.88;99.59
6514;BME280;3290;47.716;9.070;2022-12-11T07:21:31;96342.50;;;-1.20;99.44
6514;BME280;3290;47.716;9.070;2022-12-11T07:23:57;96348.59;;;-1.29;100.00
6514;BME280;3290;47.716;9.070;2022-12-11T07:26:23;96344.94;;;-1.19;100.00
6514;BME280;3290;47.716;9.070;2022-12-11T07:28:48;96352.28;;;-1.23;100.00
6514;BME280;3290;47.716;9.070;2022-12-11T07:31:17;96349.13;;;-1.10;100.00
6514;BME280;3290;47.716;9.070;2022-12-11T07:33:43;96349.19;;;-1.35;100.00
6514;BME280;3290;47.716;9.070;2022-12-11T07:36:11;96349.22;;;-1.19;100.00
6514;BME280;3290;47.716;9.070;2022-12-11T07:38:36;96346.75;;;-0.80;99.29
6514;BME280;3290;47.716;9.070;2022-12-11T07:41:03;96334.88;;;0.21;94.89
6514;BME280;3290;47.716;9.070;2022-12-11T07:43:30;96327.56;;;1.30;88.00
6514;BME280;3290;47.716;9.070;2022-12-11T07:46:03;96324.53;;;2.29;80.74
6514;BME280;3290;47.716;9.070;2022-12-11T07:48:29;96323.84;;;2.84;77.68
6514;BME280;3290;47.716;9.070;2022-12-11T07:50:54;96322.31;;;2.89;74.46
6514;BME280;3290;47.716;9.070;2022-12-11T07:53:20;96317.84;;;3.60;74.80
6514;BME280;3290;47.716;9.070;2022-12-11T07:55:45;96317.16;;;3.72;69.87
6514;BME280;3290;47.716;9.070;2022-12-11T07:58:11;96318.50;;;4.50;69.49
6514;BME280;3290;47.716;9.070;2022-12-11T08:00:36;96327.06;;;4.17;67.49
6514;BME280;3290;47.716;9.070;2022-12-11T08:03:01;96326.25;;;4.90;66.58
6514;BME280;3290;47.716;9.070;2022-12-11T08:05:27;96319.09;;;4.98;66.14
6514;BME280;3290;47.716;9.070;2022-12-11T08:07:52;96323.97;;;5.20;63.56
6514;BME280;3290;47.716;9.070;2022-12-11T08:10:17;96313.50;;;4.95;62.95
6514;BME280;3290;47.716;9.070;2022-12-11T08:12:43;96324.84;;;4.41;64.25
6514;BME280;3290;47.716;9.070;2022-12-11T08:15:09;96329.91;;;4.22;66.38
6514;BME280;3290;47.716;9.070;2022-12-11T08:17:34;96328.28;;;4.54;68.28
6514;BME280;3290;47.716;9.070;2022-12-11T08:20:00;96333.88;;;3.91;68.95
6514;BME280;3290;47.716;9.070;2022-12-11T08:22:25;96327.63;;;4.39;67.47
6514;BME280;3290;47.716;9.070;2022-12-11T08:24:50;96321.69;;;4.92;66.46
6514;BME280;3290;47.716;9.070;2022-12-11T08:27:16;96320.84;;;5.57;64.10
6514;BME280;3290;47.716;9.070;2022-12-11T08:29:41;96319.59;;;5.40;63.67
6514;BME280;3290;47.716;9.070;2022-12-11T08:32:06;96328.03;;;5.68;64.12
6514;BME280;3290;47.716;9.070;2022-12-11T08:34:32;96316.47;;;5.64;62.43
6514;BME280;3290;47.716;9.070;2022-12-11T08:36:57;96319.22;;;5.43;62.89
6514;BME280;3290;47.716;9.070;2022-12-11T08:39:23;96322.88;;;5.87;63.12
6514;BME280;3290;47.716;9.070;2022-12-11T08:41:50;96328.03;;;5.68;64.93
6514;BME280;3290;47.716;9.070;2022-12-11T08:44:15;96323.25;;;6.29;60.58
6514;BME280;3290;47.716;9.070;2022-12-11T08:46:41;96316.25;;;6.36;60.04
6514;BME280;3290;47.716;9.070;2022-12-11T08:49:06;96326.97;;;5.24;64.43
6514;BME280;3290;47.716;9.070;2022-12-11T08:51:32;96332.22;;;5.43;61.67
6514;BME280;3290;47.716;9.070;2022-12-11T08:53:58;96322.47;;;6.29;60.57
6514;BME280;3290;47.716;9.070;2022-12-11T08:56:26;96322.63;;;5.63;60.00
6514;BME280;3290;47.716;9.070;2022-12-11T08:58:52;96319.69;;;5.00;65.52
6514;BME280;3290;47.716;9.070;2022-12-11T09:01:23;96315.28;;;5.86;63.35
6514;BME280;3290;47.716;9.070;2022-12-11T09:03:51;96315.06;;;6.95;61.63
6514;BME280;3290;47.716;9.070;2022-12-11T09:06:18;96312.03;;;6.48;59.95
6514;BME280;3290;47.716;9.070;2022-12-11T09:08:45;96320.06;;;5.69;65.31
6514;BME280;3290;47.716;9.070;2022-12-11T09:11:14;96324.84;;;5.53;67.46
6514;BME280;3290;47.716;9.070;2022-12-11T09:13:40;96324.47;;;5.95;65.20
6514;BME280;3290;47.716;9.070;2022-12-11T09:16:08;96324.84;;;5.59;65.97
6514;BME280;3290;47.716;9.070;2022-12-11T09:18:38;96319.88;;;5.77;64.36
6514;BME280;3290;47.716;9.070;2022-12-11T09:21:06;96320.25;;;5.68;65.10
6514;BME280;3290;47.716;9.070;2022-12-11T09:23:32;96319.28;;;5.82;64.80
6514;BME280;3290;47.716;9.070;2022-12-11T09:25:58;96324.59;;;5.42;67.04
6514;BME280;3290;47.716;9.070;2022-12-11T09:28:24;96321.41;;;5.27;67.21
6514;BME280;3290;47.716;9.070;2022-12-11T09:30:50;96323.16;;;5.26;66.80
6514;BME280;3290;47.716;9.070;2022-12-11T09:33:16;96316.41;;;5.38;66.95
6514;BME280;3290;47.716;9.070;2022-12-11T09:35:42;96317.97;;;5.26;68.20
6514;BME280;3290;47.716;9.070;2022-12-11T09:38:07;96309.13;;;7.25;62.26
6514;BME280;3290;47.716;9.070;2022-12-11T09:40:38;96313.09;;;5.96;62.27
6514;BME280;3290;47.716;9.070;2022-12-11T09:43:35;96309.06;;;5.93;65.10
6514;BME280;3290;47.716;9.070;2022-12-11T09:46:04;96308.09;;;5.94;63.74
6514;BME280;3290;47.716;9.070;2022-12-11T09:48:32;96304.91;;;5.98;63.80
6514;BME280;3290;47.716;9.070;2022-12-11T09:51:02;96296.31;;;5.92;63.84
6514;BME280;3290;47.716;9.070;2022-12-11T09:53:33;96302.88;;;5.62;64.99
6514;BME280;3290;47.716;9.070;2022-12-11T09:56:15;96290.38;;;6.54;62.08
6514;BME280;3290;47.716;9.070;2022-12-11T09:59:01;96294.84;;;6.34;62.16
6514;BME280;3290;47.716;9.070;2022-12-11T10:04:48;96284.78;;;6.57;62.19
6514;BME280;3290;47.716;9.070;2022-12-11T10:07:51;96279.19;;;6.53;63.29
6514;BME280;3290;47.716;9.070;2022-12-11T10:10:34;96278.63;;;6.95;60.67
6514;BME280;3290;47.716;9.070;2022-12-11T10:16:13;96272.63;;;7.56;60.08
6514;BME280;3290;47.716;9.070;2022-12-11T10:18:43;96266.31;;;6.65;60.30
6514;BME280;3290;47.716;9.070;2022-12-11T10:21:09;96257.06;;;6.75;60.90
6514;BME280;3290;47.716;9.070;2022-12-11T10:23:53;96258.84;;;7.24;60.11
6514;BME280;3290;47.716;9.070;2022-12-11T10:26:22;96257.81;;;7.56;59.45
6514;BME280;3290;47.716;9.070;2022-12-11T10:28:47;96254.88;;;7.70;58.08
6514;BME280;3290;47.716;9.070;2022-12-11T10:31:18;96250.53;;;7.34;57.93
6514;BME280;3290;47.716;9.070;2022-12-11T10:33:54;96243.28;;;8.15;56.56
6514;BME280;3290;47.716;9.070;2022-12-11T10:36:35;96245.41;;;7.52;59.73
6514;BME280;3290;47.716;9.070;2022-12-11T10:39:02;96240.63;;;7.18;58.40
6514;BME280;3290;47.716;9.070;2022-12-11T10:41:58;96233.00;;;8.20;55.50
6514;BME280;3290;47.716;9.070;2022-12-11T10:44:28;96237.91;;;7.37;57.96
6514;BME280;3290;47.716;9.070;2022-12-11T10:47:14;96237.44;;;7.16;57.74
6514;BME280;3290;47.716;9.070;2022-12-11T10:49:50;96220.38;;;8.35;54.76
6514;BME280;3290;47.716;9.070;2022-12-11T10:52:30;96220.28;;;8.59;54.71
6514;BME280;3290;47.716;9.070;2022-12-11T10:57:34;96222.34;;;8.57;55.31
6514;BME280;3290;47.716;9.070;2022-12-11T11:00:01;96202.50;;;9.25;49.83
6514;BME280;3290;47.716;9.070;2022-12-11T11:02:35;96212.34;;;7.94;53.64
6514;BME280;3290;47.716;9.070;2022-12-11T11:05:34;96207.75;;;7.48;55.37
6514;BME280;3290;47.716;9.070;2022-12-11T11:08:20;96203.78;;;8.29;54.18
6514;BME280;3290;47.716;9.070;2022-12-11T11:13:20;96198.16;;;7.42;56.22
6514;BME280;3290;47.716;9.070;2022-12-11T11:15:46;96194.94;;;7.46;58.40
6514;BME280;3290;47.716;9.070;2022-12-11T11:18:21;96186.28;;;7.28;58.99
6514;BME280;3290;47.716;9.070;2022-12-11T11:20:49;96189.44;;;7.96;55.88
6514;BME280;3290;47.716;9.070;2022-12-11T11:23:15;96187.63;;;7.06;57.41
6514;BME280;3290;47.716;9.070;2022-12-11T11:25:55;96179.16;;;8.01;60.31
6514;BME280;3290;47.716;9.070;2022-12-11T11:28:30;96176.03;;;7.93;58.31
6514;BME280;3290;47.716;9.070;2022-12-11T11:31:02;96175.56;;;7.36;58.32
6514;BME280;3290;47.716;9.070;2022-12-11T11:33:30;96178.38;;;7.10;60.77
6514;BME280;3290;47.716;9.070;2022-12-11T11:36:02;96185.50;;;6.60;61.54
6514;BME280;3290;47.716;9.070;2022-12-11T11:38:42;96178.38;;;7.34;60.96
6514;BME280;3290;47.716;9.070;2022-12-11T11:41:14;96181.06;;;6.67;62.04
6514;BME280;3290;47.716;9.070;2022-12-11T11:44:04;96172.53;;;6.47;63.59
6514;BME280;3290;47.716;9.070;2022-12-11T11:46:30;96164.38;;;7.77;59.28
6514;BME280;3290;47.716;9.070;2022-12-11T11:49:06;96160.47;;;7.44;59.58
6514;BME280;3290;47.716;9.070;2022-12-11T11:51:42;96169.13;;;7.14;60.09
6514;BME280;3290;47.716;9.070;2022-12-11T11:54:41;96166.25;;;7.70;56.33
6514;BME280;3290;47.716;9.070;2022-12-11T11:57:17;96155.13;;;8.52;51.91
6514;BME280;3290;47.716;9.070;2022-12-11T12:00:32;96150.63;;;9.52;50.58
6514;BME280;3290;47.716;9.070;2022-12-11T12:02:35;96152.91;;;9.59;51.42
6514;BME280;3290;47.716;9.070;2022-12-11T12:05:01;96159.50;;;8.05;55.10
6514;BME280;3290;47.716;9.070;2022-12-11T12:07:38;96155.63;;;7.48;56.15
6514;BME280;3290;47.716;9.070;2022-12-11T12:13:05;96154.91;;;7.41;56.20
6514;BME280;3290;47.716;9.070;2022-12-11T12:15:45;96140.84;;;9.58;50.75
6514;BME280;3290;47.716;9.070;2022-12-11T12:26:45;96134.63;;;8.38;53.47
6514;BME280;3290;47.716;9.070;2022-12-11T12:32:07;96138.38;;;7.71;54.61
6514;BME280;3290;47.716;9.070;2022-12-11T12:40:27;96140.97;;;7.71;54.49
6514;BME280;3290;47.716;9.070;2022-12-11T12:43:05;96145.31;;;7.35;56.02
6514;BME280;3290;47.716;9.070;2022-12-11T12:45:45;96136.09;;;8.16;52.11
6514;BME280;3290;47.716;9.070;2022-12-11T12:48:13;96132.31;;;8.77;51.85
6514;BME280;3290;47.716;9.070;2022-12-11T12:50:45;96137.28;;;7.36;53.86
6514;BME280;3290;47.716;9.070;2022-12-11T12:53:17;96131.22;;;8.38;53.68
6514;BME280;3290;47.716;9.070;2022-12-11T12:55:43;96132.72;;;7.32;52.76
6514;BME280;3290;47.716;9.070;2022-12-11T12:58:29;96142.56;;;6.32;57.03
6514;BME280;3290;47.716;9.070;2022-12-11T13:01:14;96143.75;;;6.79;54.93
6514;BME280;3290;47.716;9.070;2022-12-11T13:04:04;96136.56;;;6.75;55.48
6514;BME280;3290;47.716;9.070;2022-12-11T13:06:39;96135.69;;;6.00;57.77
6514;BME280;3290;47.716;9.070;2022-12-11T13:09:25;96125.75;;;6.71;56.65
6514;BME280;3290;47.716;9.070;2022-12-11T13:11:53;96139.50;;;7.09;56.25
6514;BME280;3290;47.716;9.070;2022-12-11T13:14:29;96134.22;;;7.21;56.60
6514;BME280;3290;47.716;9.070;2022-12-11T13:17:22;96128.47;;;7.37;55.20
6514;BME280;3290;47.716;9.070;2022-12-11T13:19:50;96125.66;;;7.39;55.93
6514;BME280;3290;47.716;9.070;2022-12-11T13:22:22;96129.59;;;6.69;56.99
6514;BME280;3290;47.716;9.070;2022-12-11T13:27:39;96117.16;;;7.67;54.33
6514;BME280;3290;47.716;9.070;2022-12-11T13:32:40;96125.13;;;6.38;57.55
6514;BME280;3290;47.716;9.070;2022-12-11T13:35:15;96122.47;;;6.82;56.46
6514;BME280;3290;47.716;9.070;2022-12-11T13:37:45;96115.13;;;7.87;54.07
6514;BME280;3290;47.716;9.070;2022-12-11T13:40:26;96118.78;;;7.44;55.02
6514;BME280;3290;47.716;9.070;2022-12-11T13:42:58;96127.72;;;6.01;58.98
6514;BME280;3290;47.716;9.070;2022-12-11T13:45:42;96121.34;;;5.97;59.92
6514;BME280;3290;47.716;9.070;2022-12-11T13:50:58;96127.16;;;5.87;59.94
6514;BME280;3290;47.716;9.070;2022-12-11T13:53:24;96126.19;;;5.75;61.26
6514;BME280;3290;47.716;9.070;2022-12-11T13:56:01;96130.97;;;5.84;62.65
6514;BME280;3290;47.716;9.070;2022-12-11T13:58:28;96128.00;;;5.74;61.76
6514;BME280;3290;47.716;9.070;2022-12-11T14:01:07;96133.31;;;6.48;59.94
6514;BME280;3290;47.716;9.070;2022-12-11T14:03:38;96136.19;;;6.28;60.06
6514;BME280;3290;47.716;9.070;2022-12-11T14:06:08;96134.03;;;6.62;60.52
6514;BME280;3290;47.716;9.070;2022-12-11T14:08:36;96139.56;;;6.35;59.31
6514;BME280;3290;47.716;9.070;2022-12-11T14:11:03;96132.63;;;5.53;62.64
6514;BME280;3290;47.716;9.070;2022-12-11T14:13:39;96135.63;;;5.24;64.75
6514;BME280;3290;47.716;9.070;2022-12-11T14:16:06;96145.22;;;5.43;65.61
6514;BME280;3290;47.716;9.070;2022-12-11T14:18:32;96145.81;;;5.07;66.70
6514;BME280;3290;47.716;9.070;2022-12-11T14:21:02;96145.78;;;5.58;67.75
6514;BME280;3290;47.716;9.070;2022-12-11T14:23:33;96147.28;;;6.10;62.87
6514;BME280;3290;47.716;9.070;2022-12-11T14:28:41;96163.00;;;5.14;66.49
6514;BME280;3290;47.716;9.070;2022-12-11T14:31:06;96157.59;;;5.16;68.29
6514;BME280;3290;47.716;9.070;2022-12-11T14:33:43;96163.00;;;4.88;69.30
6514;BME280;3290;47.716;9.070;2022-12-11T14:36:09;96160.41;;;4.88;71.31
6514;BME280;3290;47.716;9.070;2022-12-11T14:38:58;96172.13;;;4.72;70.24
6514;BME280;3290;47.716;9.070;2022-12-11T14:41:34;96170.06;;;4.41;72.11
6514;BME280;3290;47.716;9.070;2022-12-11T14:44:06;96170.16;;;4.80;70.12